Time;durP1;ratioP1;P1;durP2;ratioP2;P2;SDS_P1;SDS_P2;PMS_P1;PMS_P2;Temp;Humidity;BMP_temperature;BMP_pressure;BME280_temperature;BME280_humidity;BME280_pressure;Samples;Min_cycle;Max_cycle;Signal;HPM_P1;HPM_P2
2022/04/11 00:01:04;;;;;;;;;;;;;;;9.28;87.17;98375.34;5075992;28;19944;-73
2022/04/11 00:03:30;;;;;;;;;;;;;;;9.24;86.88;98361.69;5075736;28;19936;-74
2022/04/11 00:05:58;;;;;;;;;;;;;;;9.25;86.68;98360.66;5067558;28;19924;-73
2022/04/11 00:08:25;;;;;;;;;;;;;;;9.25;86.93;98358.00;5074334;28;19997;-73
2022/04/11 00:10:51;;;;;;;;;;;;;;;9.23;86.93;98360.06;5078213;28;19925;-73
2022/04/11 00:13:18;;;;;;;;;;;;;;;9.09;87.22;98356.94;5078753;28;20550;-73
2022/04/11 00:15:44;;;;;;;;;;;;;;;8.91;88.71;98359.03;5075494;28;20007;-73
2022/04/11 00:18:10;;;;;;;;;;;;;;;8.65;89.62;98353.25;5073887;28;19964;-73
2022/04/11 00:20:37;;;;;;;;;;;;;;;8.34;92.24;98361.72;5074816;28;19925;-73
2022/04/11 00:23:05;;;;;;;;;;;;;;;8.54;92.42;98348.78;5078507;28;19931;-73
2022/04/11 00:25:31;;;;;;;;;;;;;;;8.78;90.85;98341.50;5078421;28;19924;-73
2022/04/11 00:27:58;;;;;;;;;;;;;;;8.94;89.58;98348.72;5074755;28;19925;-73
2022/04/11 00:30:25;;;;;;;;;;;;;;;8.64;89.77;98348.16;5074884;28;19947;-73
2022/04/11 00:32:51;;;;;;;;;;;;;;;8.09;91.83;98351.38;5077290;28;19929;-73
2022/04/11 00:35:17;;;;;;;;;;;;;;;8.02;94.60;98349.88;5077126;28;19996;-73
2022/04/11 00:37:44;;;;;;;;;;;;;;;8.22;95.40;98358.28;5076480;28;19921;-74
2022/04/11 00:40:12;;;;;;;;;;;;;;;8.45;93.32;98344.09;5075125;28;19967;-74
2022/04/11 00:42:38;;;;;;;;;;;;;;;8.69;90.78;98350.94;5074842;28;19925;-74
2022/04/11 00:45:05;;;;;;;;;;;;;;;8.53;90.41;98344.53;5074408;28;19925;-74
2022/04/11 00:47:32;;;;;;;;;;;;;;;8.22;91.90;98350.28;5074745;28;20000;-73
2022/04/11 00:49:59;;;;;;;;;;;;;;;8.07;93.51;98352.66;5077834;28;19924;-74
2022/04/11 00:52:27;;;;;;;;;;;;;;;7.89;94.15;98355.50;5078006;28;19924;-73
2022/04/11 00:54:53;;;;;;;;;;;;;;;7.99;94.28;98351.16;5073688;28;19985;-73
2022/04/11 00:57:21;;;;;;;;;;;;;;;7.99;94.70;98355.66;5073647;28;19928;-74
2022/04/11 00:59:48;;;;;;;;;;;;;;;7.83;95.62;98359.88;5076987;28;19947;-74
2022/04/11 01:02:14;;;;;;;;;;;;;;;8.06;95.08;98359.03;5078079;28;19962;-74
2022/04/11 01:04:41;;;;;;;;;;;;;;;7.83;94.50;98364.41;5075362;28;19951;-74
2022/04/11 01:07:07;;;;;;;;;;;;;;;7.77;96.21;98344.06;5074673;28;20018;-74
2022/04/11 01:09:34;;;;;;;;;;;;;;;7.89;95.90;98353.63;5073691;28;19984;-73
2022/04/11 01:12:01;;;;;;;;;;;;;;;8.12;95.09;98361.53;5075817;28;19967;-73
2022/04/11 01:14:29;;;;;;;;;;;;;;;8.07;94.07;98360.66;5074122;28;19971;-74
2022/04/11 01:16:57;;;;;;;;;;;;;;;8.12;93.05;98363.41;5066400;28;19932;-74
2022/04/11 01:19:24;;;;;;;;;;;;;;;7.39;94.04;98365.81;5073453;28;19947;-74
2022/04/11 01:21:52;;;;;;;;;;;;;;;6.27;100.00;98367.53;5077017;28;20255;-72
2022/04/11 01:24:19;;;;;;;;;;;;;;;6.38;100.00;98374.72;5076663;28;19952;-73
2022/04/11 01:26:47;;;;;;;;;;;;;;;6.70;100.00;98370.00;5075630;28;19993;-73
2022/04/11 01:29:13;;;;;;;;;;;;;;;6.66;100.00;98365.34;5074271;28;20123;-74
2022/04/11 01:31:40;;;;;;;;;;;;;;;6.62;100.00;98372.16;5076113;28;19924;-74
2022/04/11 01:34:06;;;;;;;;;;;;;;;7.19;100.00;98376.78;5077001;28;19931;-74
2022/04/11 01:36:32;;;;;;;;;;;;;;;7.30;100.00;98365.38;5077962;28;19955;-74
2022/04/11 01:39:00;;;;;;;;;;;;;;;7.21;100.00;98371.25;5074288;28;19921;-74
2022/04/11 01:41:27;;;;;;;;;;;;;;;7.22;100.00;98368.34;5074402;28;19980;-74
2022/04/11 01:43:53;;;;;;;;;;;;;;;6.99;100.00;98365.69;5075030;28;19924;-75
2022/04/11 01:46:19;;;;;;;;;;;;;;;7.13;100.00;98372.38;5074379;28;19921;-74
2022/04/11 01:48:46;;;;;;;;;;;;;;;7.45;99.76;98360.41;5079497;28;20452;-74
2022/04/11 01:51:12;;;;;;;;;;;;;;;7.78;96.60;98364.28;5080488;28;19960;-74
2022/04/11 01:53:39;;;;;;;;;;;;;;;8.10;93.72;98360.16;5080377;28;20026;-74
2022/04/11 01:56:07;;;;;;;;;;;;;;;8.31;91.36;98364.88;5078075;28;19928;-74
2022/04/11 01:58:33;;;;;;;;;;;;;;;8.41;89.66;98362.41;5078348;28;19983;-74
2022/04/11 02:01:00;;;;;;;;;;;;;;;8.48;88.62;98363.06;5080051;28;19924;-74
2022/04/11 02:03:26;;;;;;;;;;;;;;;8.53;87.98;98365.00;5081300;28;19950;-74
2022/04/11 02:05:53;;;;;;;;;;;;;;;8.59;87.74;98348.91;5077195;28;19999;-73
2022/04/11 02:08:20;;;;;;;;;;;;;;;8.45;87.74;98362.72;5078017;28;20350;-74
2022/04/11 02:10:46;;;;;;;;;;;;;;;8.25;89.40;98355.16;5079690;28;19931;-74
2022/04/11 02:13:14;;;;;;;;;;;;;;;8.42;89.26;98355.22;5074815;28;19925;-74
2022/04/11 02:15:41;;;;;;;;;;;;;;;8.47;88.57;98356.13;5079658;28;19929;-74
2022/04/11 02:18:07;;;;;;;;;;;;;;;8.50;87.71;98363.66;5080857;28;19966;-74
2022/04/11 02:20:34;;;;;;;;;;;;;;;8.50;87.32;98358.31;5079213;28;19966;-74
2022/04/11 02:23:01;;;;;;;;;;;;;;;8.51;86.97;98364.47;5077759;28;19933;-74
2022/04/11 02:25:29;;;;;;;;;;;;;;;8.49;87.11;98354.03;5076615;28;19924;-73
2022/04/11 02:27:57;;;;;;;;;;;;;;;8.51;87.19;98343.94;5081080;28;19950;-73
2022/04/11 02:30:25;;;;;;;;;;;;;;;8.56;87.12;98343.25;5080306;28;19931;-74
2022/04/11 02:32:52;;;;;;;;;;;;;;;8.57;87.08;98342.19;5078351;28;19928;-73
2022/04/11 02:35:19;;;;;;;;;;;;;;;8.56;86.81;98341.38;5077671;28;19921;-74
2022/04/11 02:37:46;;;;;;;;;;;;;;;8.57;86.49;98345.66;5078124;28;19924;-74
2022/04/11 02:40:13;;;;;;;;;;;;;;;8.54;86.72;98348.00;5080558;28;19927;-74
2022/04/11 02:42:41;;;;;;;;;;;;;;;8.51;86.94;98345.81;5072372;28;19936;-74
2022/04/11 02:45:08;;;;;;;;;;;;;;;8.49;87.04;98334.59;5075827;28;20012;-74
2022/04/11 02:47:36;;;;;;;;;;;;;;;8.46;86.76;98335.88;5077449;28;19927;-74
2022/04/11 02:50:02;;;;;;;;;;;;;;;8.45;87.11;98344.91;5080538;28;19931;-73
2022/04/11 02:52:29;;;;;;;;;;;;;;;8.49;87.19;98332.75;5078882;28;19984;-74
2022/04/11 02:54:55;;;;;;;;;;;;;;;8.49;86.95;98337.25;5076757;28;19929;-74
2022/04/11 02:57:22;;;;;;;;;;;;;;;8.51;87.09;98340.50;5074907;28;19944;-73
2022/04/11 02:59:49;;;;;;;;;;;;;;;8.45;87.17;98331.59;5077340;28;19924;-74
2022/04/11 03:02:15;;;;;;;;;;;;;;;8.44;87.46;98347.81;5079620;28;19951;-74
2022/04/11 03:04:43;;;;;;;;;;;;;;;8.40;87.35;98342.16;5078045;28;20027;-73
2022/04/11 03:07:09;;;;;;;;;;;;;;;8.42;87.12;98333.91;5074881;28;19984;-73
2022/04/11 03:09:36;;;;;;;;;;;;;;;8.45;87.15;98328.94;5076702;28;19980;-74
2022/04/11 03:12:02;;;;;;;;;;;;;;;8.41;86.98;98333.13;5077755;28;19924;-74
2022/04/11 03:14:29;;;;;;;;;;;;;;;8.41;86.95;98330.47;5075960;28;19924;-74
2022/04/11 03:16:55;;;;;;;;;;;;;;;8.39;87.17;98337.06;5074834;28;19955;-73
2022/04/11 03:19:21;;;;;;;;;;;;;;;8.33;87.23;98343.34;5075810;28;19947;-73
2022/04/11 03:21:49;;;;;;;;;;;;;;;8.29;87.41;98340.38;5076778;28;19935;-73
2022/04/11 03:24:16;;;;;;;;;;;;;;;8.21;87.53;98338.03;5077978;28;20398;-73
2022/04/11 03:26:43;;;;;;;;;;;;;;;8.23;87.76;98338.63;5077220;28;19927;-74
2022/04/11 03:29:09;;;;;;;;;;;;;;;8.21;87.94;98332.72;5075452;28;19988;-73
2022/04/11 03:31:36;;;;;;;;;;;;;;;8.21;88.22;98332.72;5074989;28;20138;-72
2022/04/11 03:34:02;;;;;;;;;;;;;;;8.23;88.35;98338.63;5079275;28;19981;-73
2022/04/11 03:36:28;;;;;;;;;;;;;;;8.18;88.63;98327.88;5079059;28;19948;-73
2022/04/11 03:38:56;;;;;;;;;;;;;;;8.17;88.37;98323.56;5074389;28;19956;-73
2022/04/11 03:41:23;;;;;;;;;;;;;;;8.22;88.66;98339.66;5075776;28;19954;-73
2022/04/11 03:43:49;;;;;;;;;;;;;;;8.22;88.76;98329.00;5071605;28;19951;-73
2022/04/11 03:46:15;;;;;;;;;;;;;;;8.20;88.41;98331.09;5079141;28;19971;-73
2022/04/11 03:48:43;;;;;;;;;;;;;;;8.13;88.85;98330.44;5077294;28;19925;-73
2022/04/11 03:51:09;;;;;;;;;;;;;;;8.11;89.06;98335.16;5075244;28;19921;-74
2022/04/11 03:53:36;;;;;;;;;;;;;;;8.18;89.05;98332.38;5076713;28;19924;-74
2022/04/11 03:56:04;;;;;;;;;;;;;;;8.19;88.52;98332.16;5079132;28;19929;-75
2022/04/11 03:58:31;;;;;;;;;;;;;;;8.07;89.07;98336.69;5080235;28;19951;-75
2022/04/11 04:00:57;;;;;;;;;;;;;;;8.12;88.88;98328.81;5068519;28;19968;-73
2022/04/11 04:03:23;;;;;;;;;;;;;;;8.13;88.82;98338.41;5076562;28;19947;-74
2022/04/11 04:05:50;;;;;;;;;;;;;;;8.10;89.13;98322.94;5077393;28;19936;-74
2022/04/11 04:08:17;;;;;;;;;;;;;;;8.04;89.22;98331.84;5078415;28;19924;-74
2022/04/11 04:10:43;;;;;;;;;;;;;;;8.10;89.29;98325.59;5077524;28;19924;-74
2022/04/11 04:13:12;;;;;;;;;;;;;;;8.06;89.09;98327.09;5073394;28;20000;-74
2022/04/11 04:15:39;;;;;;;;;;;;;;;8.09;89.13;98329.28;5077625;28;19978;-75
2022/04/11 04:18:05;;;;;;;;;;;;;;;7.80;90.05;98322.34;5075187;28;19956;-74
2022/04/11 04:20:31;;;;;;;;;;;;;;;7.73;91.46;98319.81;5075320;28;19928;-74
2022/04/11 04:22:58;;;;;;;;;;;;;;;7.77;91.42;98320.94;5078464;28;19984;-74
2022/04/11 04:25:24;;;;;;;;;;;;;;;7.65;92.27;98317.47;5076992;28;19959;-74
2022/04/11 04:27:51;;;;;;;;;;;;;;;7.54;92.96;98315.66;5075890;28;19962;-74
2022/04/11 04:30:18;;;;;;;;;;;;;;;7.65;92.57;98308.69;5073652;28;19979;-74
2022/04/11 04:32:45;;;;;;;;;;;;;;;7.80;91.79;98314.34;5076384;28;19951;-74
2022/04/11 04:35:12;;;;;;;;;;;;;;;7.76;91.47;98313.19;5078079;28;20020;-74
2022/04/11 04:37:38;;;;;;;;;;;;;;;7.81;91.24;98310.63;5076698;28;19936;-74
2022/04/11 04:40:05;;;;;;;;;;;;;;;7.85;90.46;98312.59;5074484;28;19952;-74
2022/04/11 04:42:32;;;;;;;;;;;;;;;7.57;91.87;98315.19;5074407;28;19925;-74
2022/04/11 04:44:58;;;;;;;;;;;;;;;7.22;93.67;98317.88;5073343;28;19935;-74
2022/04/11 04:47:26;;;;;;;;;;;;;;;7.39;94.59;98316.16;5074613;28;19924;-74
2022/04/11 04:49:52;;;;;;;;;;;;;;;7.46;94.11;98314.16;5077111;28;19987;-73
2022/04/11 04:52:19;;;;;;;;;;;;;;;7.43;94.35;98304.00;5077633;28;19931;-73
2022/04/11 04:54:45;;;;;;;;;;;;;;;7.26;95.56;98303.09;5075591;28;19932;-73
2022/04/11 04:57:12;;;;;;;;;;;;;;;7.50;94.71;98310.00;5073969;28;19932;-73
2022/04/11 04:59:38;;;;;;;;;;;;;;;7.66;92.71;98307.66;5074384;28;19924;-74
2022/04/11 05:02:05;;;;;;;;;;;;;;;7.69;92.59;98302.69;5077344;28;19925;-73
2022/04/11 05:04:32;;;;;;;;;;;;;;;7.57;92.78;98307.22;5077510;28;19928;-73
2022/04/11 05:06:59;;;;;;;;;;;;;;;7.38;94.86;98311.88;5044635;28;19944;-73
2022/04/11 05:09:25;;;;;;;;;;;;;;;7.56;94.29;98318.88;5069745;28;19921;-73
2022/04/11 05:11:52;;;;;;;;;;;;;;;7.29;94.55;98305.28;5076012;28;20179;-72
2022/04/11 05:14:18;;;;;;;;;;;;;;;6.91;97.83;98311.06;5071926;28;19947;-72
2022/04/11 05:16:45;;;;;;;;;;;;;;;6.16;100.00;98296.69;5075436;28;19931;-73
2022/04/11 05:19:11;;;;;;;;;;;;;;;6.00;100.00;98307.94;5074064;28;19921;-72
2022/04/11 05:21:39;;;;;;;;;;;;;;;6.03;100.00;98301.38;5074939;28;19928;-72
2022/04/11 05:24:06;;;;;;;;;;;;;;;6.19;100.00;98300.75;5081647;28;19968;-73
2022/04/11 05:26:32;;;;;;;;;;;;;;;6.18;100.00;98299.13;5081466;28;19976;-74
2022/04/11 05:28:59;;;;;;;;;;;;;;;5.60;100.00;98301.47;5077756;28;19931;-73
2022/04/11 05:31:25;;;;;;;;;;;;;;;5.05;100.00;98306.69;5078243;28;19927;-73
2022/04/11 05:33:52;;;;;;;;;;;;;;;4.45;100.00;98304.75;5080331;28;19929;-73
2022/04/11 05:36:18;;;;;;;;;;;;;;;3.90;100.00;98298.38;5081756;28;19950;-74
2022/04/11 05:38:46;;;;;;;;;;;;;;;3.78;100.00;98303.50;5078441;28;20279;-73
2022/04/11 05:41:14;;;;;;;;;;;;;;;4.15;100.00;98294.78;5077976;28;19921;-74
2022/04/11 05:43:41;;;;;;;;;;;;;;;3.97;100.00;98292.03;5078914;28;19928;-73
2022/04/11 05:46:07;;;;;;;;;;;;;;;4.42;100.00;98297.25;5078490;28;19964;-73
2022/04/11 05:48:34;;;;;;;;;;;;;;;4.53;100.00;98304.50;5078632;28;19936;-73
2022/04/11 05:51:00;;;;;;;;;;;;;;;4.55;100.00;98310.41;5081782;28;19921;-73
2022/04/11 05:53:27;;;;;;;;;;;;;;;4.51;100.00;98306.53;5080708;28;19956;-73
2022/04/11 05:55:54;;;;;;;;;;;;;;;4.62;100.00;98300.56;5077107;28;20600;-72
2022/04/11 05:58:21;;;;;;;;;;;;;;;4.43;100.00;98304.97;5077747;28;19932;-73
2022/04/11 06:00:47;;;;;;;;;;;;;;;4.37;100.00;98305.81;5079682;28;20742;-73
2022/04/11 06:03:14;;;;;;;;;;;;;;;4.43;100.00;98306.78;5079716;28;19924;-73
2022/04/11 06:05:41;;;;;;;;;;;;;;;4.27;100.00;98308.94;5080165;28;19939;-73
2022/04/11 06:08:07;;;;;;;;;;;;;;;4.26;100.00;98309.97;5077751;28;19925;-72
2022/04/11 06:10:35;;;;;;;;;;;;;;;4.11;100.00;98308.63;5078360;28;19924;-73
2022/04/11 06:13:03;;;;;;;;;;;;;;;3.91;100.00;98314.00;5076917;28;19972;-72
2022/04/11 06:15:29;;;;;;;;;;;;;;;3.98;100.00;98306.06;5077166;28;19921;-72
2022/04/11 06:17:56;;;;;;;;;;;;;;;4.07;100.00;98304.78;5080643;28;19928;-72
2022/04/11 06:20:22;;;;;;;;;;;;;;;4.17;100.00;98310.44;5080817;28;19931;-72
2022/04/11 06:22:48;;;;;;;;;;;;;;;4.00;100.00;98315.38;5078268;28;19924;-73
2022/04/11 06:25:15;;;;;;;;;;;;;;;4.36;100.00;98304.22;5077340;28;19964;-72
2022/04/11 06:27:41;;;;;;;;;;;;;;;4.26;100.00;98309.97;5078164;28;19925;-73
2022/04/11 06:30:10;;;;;;;;;;;;;;;4.21;100.00;98306.31;5079932;28;19931;-73
2022/04/11 06:32:36;;;;;;;;;;;;;;;4.22;100.00;98300.84;5079065;28;19925;-72
2022/04/11 06:35:03;;;;;;;;;;;;;;;4.45;100.00;98308.22;5076045;28;19939;-72
2022/04/11 06:37:29;;;;;;;;;;;;;;;4.35;100.00;98313.16;5075402;28;19925;-71
2022/04/11 06:39:57;;;;;;;;;;;;;;;4.14;100.00;98301.09;5079989;28;19936;-72
2022/04/11 06:42:24;;;;;;;;;;;;;;;4.03;100.00;98307.03;5074558;28;19927;-72
2022/04/11 06:44:50;;;;;;;;;;;;;;;3.98;100.00;98309.50;5075222;28;19988;-72
2022/04/11 06:47:21;;;;;;;;;;;;;;;4.14;100.00;98305.56;5076497;28;20267;-73
2022/04/11 06:49:47;;;;;;;;;;;;;;;4.01;100.00;98306.44;5078865;28;19960;-72
2022/04/11 06:52:14;;;;;;;;;;;;;;;4.22;100.00;98315.88;5079082;28;20332;-72
2022/04/11 06:54:41;;;;;;;;;;;;;;;4.39;100.00;98319.66;5078477;28;19920;-73
2022/04/11 06:57:07;;;;;;;;;;;;;;;4.88;100.00;98309.09;5076698;28;19971;-72
2022/04/11 06:59:34;;;;;;;;;;;;;;;5.24;100.00;98307.53;5076860;28;19921;-74
2022/04/11 07:02:00;;;;;;;;;;;;;;;5.40;100.00;98317.56;5080283;28;19978;-71
2022/04/11 07:04:28;;;;;;;;;;;;;;;5.42;100.00;98321.59;5080254;28;19951;-71
2022/04/11 07:06:55;;;;;;;;;;;;;;;5.90;100.00;98320.91;5077724;28;19932;-73
2022/04/11 07:09:21;;;;;;;;;;;;;;;6.86;100.00;98318.09;5076662;28;19925;-73
2022/04/11 07:11:47;;;;;;;;;;;;;;;6.53;100.00;98315.94;5077065;28;19956;-73
2022/04/11 07:14:14;;;;;;;;;;;;;;;5.95;100.00;98315.72;5081118;28;19921;-73
2022/04/11 07:16:40;;;;;;;;;;;;;;;5.95;100.00;98321.03;5077545;28;19925;-73
2022/04/11 07:19:07;;;;;;;;;;;;;;;6.14;100.00;98325.28;5078467;28;19997;-72
2022/04/11 07:21:35;;;;;;;;;;;;;;;6.31;100.00;98320.16;5079261;28;19988;-73
2022/04/11 07:24:01;;;;;;;;;;;;;;;6.04;100.00;98326.81;5076005;28;20028;-73
2022/04/11 07:26:28;;;;;;;;;;;;;;;5.67;100.00;98326.03;5075980;28;19921;-74
2022/04/11 07:28:54;;;;;;;;;;;;;;;5.59;100.00;98327.16;5078751;28;19948;-73
2022/04/11 07:31:21;;;;;;;;;;;;;;;5.50;100.00;98333.75;5077894;28;19925;-73
2022/04/11 07:33:49;;;;;;;;;;;;;;;5.40;100.00;98341.41;5076706;28;19924;-73
2022/04/11 07:36:15;;;;;;;;;;;;;;;5.60;100.00;98328.75;5075880;28;19924;-73
2022/04/11 07:38:43;;;;;;;;;;;;;;;5.63;100.00;98335.47;5077005;28;19981;-73
2022/04/11 07:41:09;;;;;;;;;;;;;;;5.70;100.00;98342.28;5079437;28;19921;-72
2022/04/11 07:43:36;;;;;;;;;;;;;;;5.75;100.00;98341.66;5077890;28;19951;-73
2022/04/11 07:46:04;;;;;;;;;;;;;;;5.76;100.00;98351.19;5074428;28;19936;-72
2022/04/11 07:48:30;;;;;;;;;;;;;;;5.64;100.00;98342.34;5075777;28;19931;-73
2022/04/11 07:50:57;;;;;;;;;;;;;;;5.74;100.00;98345.31;5078959;28;19925;-72
2022/04/11 07:53:23;;;;;;;;;;;;;;;5.73;100.00;98349.81;5078827;28;20033;-72
2022/04/11 07:55:51;;;;;;;;;;;;;;;6.10;100.00;98345.31;5076110;28;20401;-72
2022/04/11 07:58:18;;;;;;;;;;;;;;;6.66;100.00;98336.97;5075406;28;19925;-73
2022/04/11 08:00:45;;;;;;;;;;;;;;;6.53;100.00;98339.81;5075657;28;19925;-72
2022/04/11 08:03:11;;;;;;;;;;;;;;;6.42;100.00;98337.94;5078861;28;19974;-72
2022/04/11 08:05:38;;;;;;;;;;;;;;;6.64;100.00;98335.59;5077777;28;19931;-72
2022/04/11 08:08:04;;;;;;;;;;;;;;;6.67;100.00;98332.47;5074699;28;19927;-72
2022/04/11 08:10:32;;;;;;;;;;;;;;;6.78;100.00;98318.41;5074949;28;19931;-72
2022/04/11 08:13:01;;;;;;;;;;;;;;;6.66;100.00;98323.69;5064437;28;19964;-72
2022/04/11 08:15:28;;;;;;;;;;;;;;;6.79;100.00;98325.34;5078322;28;20027;-72
2022/04/11 08:17:54;;;;;;;;;;;;;;;6.92;100.00;98322.50;5075239;28;19995;-72
2022/04/11 08:20:21;;;;;;;;;;;;;;;6.75;100.00;98318.88;5075016;28;19925;-72
2022/04/11 08:22:48;;;;;;;;;;;;;;;6.85;100.00;98317.28;5076967;28;19944;-72
2022/04/11 08:25:14;;;;;;;;;;;;;;;6.80;100.00;98324.31;5078347;28;19987;-72
2022/04/11 08:27:41;;;;;;;;;;;;;;;6.99;100.00;98323.19;5076940;28;19931;-72
2022/04/11 08:30:10;;;;;;;;;;;;;;;6.87;100.00;98327.69;5075033;28;19952;-72
2022/04/11 08:32:40;;;;;;;;;;;;;;;6.85;100.00;98311.97;5075458;28;19931;-71
2022/04/11 08:35:07;;;;;;;;;;;;;;;7.02;100.00;98331.47;5077735;28;19924;-73
2022/04/11 08:37:37;;;;;;;;;;;;;;;6.94;100.00;98317.75;5077674;28;20157;-73
2022/04/11 08:40:04;;;;;;;;;;;;;;;6.72;100.00;98324.63;5074337;28;19924;-73
2022/04/11 08:42:30;;;;;;;;;;;;;;;6.80;100.00;98321.66;5074066;28;19960;-73
2022/04/11 08:44:58;;;;;;;;;;;;;;;6.87;100.00;98315.19;5076655;28;19974;-73
2022/04/11 08:47:26;;;;;;;;;;;;;;;7.08;100.00;98316.50;5076483;28;19988;-73
2022/04/11 08:49:53;;;;;;;;;;;;;;;6.95;100.00;98316.72;5073569;28;19952;-73
2022/04/11 08:52:19;;;;;;;;;;;;;;;7.15;100.00;98317.19;5074325;28;19924;-72
2022/04/11 08:54:46;;;;;;;;;;;;;;;7.15;100.00;98311.09;5075734;28;19931;-72
2022/04/11 08:57:13;;;;;;;;;;;;;;;7.10;100.00;98318.91;5077732;28;19925;-72
2022/04/11 08:59:39;;;;;;;;;;;;;;;7.10;100.00;98316.25;5076934;28;19992;-73
2022/04/11 09:02:08;;;;;;;;;;;;;;;7.30;100.00;98304.25;5074625;28;19992;-73
2022/04/11 09:04:48;;;;;;;;;;;;;;;7.45;100.00;98307.25;5074718;28;19932;-73
2022/04/11 09:07:14;;;;;;;;;;;;;;;7.44;100.00;98310.94;5077015;28;19928;-72
2022/04/11 09:09:41;;;;;;;;;;;;;;;7.48;100.00;98305.97;5075863;28;19947;-73
2022/04/11 09:12:09;;;;;;;;;;;;;;;7.57;100.00;98300.06;5074241;28;19921;-71
2022/04/11 09:14:37;;;;;;;;;;;;;;;7.81;100.00;98294.69;5072313;28;19920;-72
2022/04/11 09:17:04;;;;;;;;;;;;;;;7.85;100.00;98291.31;5073540;28;20685;-73
2022/04/11 09:19:31;;;;;;;;;;;;;;;7.96;100.00;98290.47;5073488;28;19925;-73
2022/04/11 09:22:00;;;;;;;;;;;;;;;7.88;100.00;98284.72;5065446;28;19943;-73
2022/04/11 09:24:29;;;;;;;;;;;;;;;7.81;100.00;98279.53;5073650;28;19925;-74
2022/04/11 09:26:55;;;;;;;;;;;;;;;7.96;100.00;98276.34;5076473;28;20015;-73
2022/04/11 09:29:22;;;;;;;;;;;;;;;8.11;100.00;98268.66;5076071;28;19954;-73
2022/04/11 09:31:49;;;;;;;;;;;;;;;8.15;100.00;98267.16;5075011;28;19989;-73
2022/04/11 09:34:19;;;;;;;;;;;;;;;8.32;100.00;98281.34;5074082;28;20256;-73
2022/04/11 09:36:47;;;;;;;;;;;;;;;8.23;100.00;98264.13;5074582;28;19956;-72
2022/04/11 09:39:15;;;;;;;;;;;;;;;8.16;100.00;98266.13;5078278;28;20033;-72
2022/04/11 09:41:46;;;;;;;;;;;;;;;8.65;100.00;98265.41;5075850;28;19979;-73
2022/04/11 09:44:22;;;;;;;;;;;;;;;8.78;100.00;98263.47;5067846;28;19932;-73
2022/04/11 09:46:49;;;;;;;;;;;;;;;8.78;100.00;98261.63;5076710;28;19932;-73
2022/04/11 09:49:15;;;;;;;;;;;;;;;8.68;98.37;98259.59;5077293;28;19920;-73
2022/04/11 09:51:57;;;;;;;;;;;;;;;8.60;93.30;98249.31;5075721;28;19924;-73
2022/04/11 09:54:28;;;;;;;;;;;;;;;8.57;96.53;98249.03;5073694;28;20099;-74
2022/04/11 09:56:55;;;;;;;;;;;;;;;9.12;95.62;98262.38;5076791;28;19929;-73
2022/04/11 09:59:23;;;;;;;;;;;;;;;8.87;87.95;98256.69;5076847;28;19987;-73
2022/04/11 10:01:51;;;;;;;;;;;;;;;8.88;90.17;98252.97;5074231;28;19959;-72
2022/04/11 10:04:17;;;;;;;;;;;;;;;8.96;91.06;98261.34;5073156;28;20679;-73
2022/04/11 10:06:44;;;;;;;;;;;;;;;9.03;86.07;98247.88;5073425;28;19980;-73
2022/04/11 10:09:10;;;;;;;;;;;;;;;9.09;87.54;98249.56;5077332;28;20444;-72
2022/04/11 10:11:38;;;;;;;;;;;;;;;9.21;88.96;98252.91;5079521;28;19988;-73
2022/04/11 10:14:06;;;;;;;;;;;;;;;9.17;84.42;98247.28;5072719;28;19989;-73
2022/04/11 10:16:32;;;;;;;;;;;;;;;9.67;82.02;98254.31;5080027;28;19931;-73
2022/04/11 10:19:01;;;;;;;;;;;;;;;9.62;82.24;98241.72;5076618;28;19925;-74
2022/04/11 10:21:27;;;;;;;;;;;;;;;9.96;83.48;98244.25;5075356;28;19984;-73
2022/04/11 10:23:56;;;;;;;;;;;;;;;9.82;83.41;98237.69;5079602;28;19924;-74
2022/04/11 10:26:26;;;;;;;;;;;;;;;9.90;82.58;98223.91;5080190;28;19920;-74
2022/04/11 10:28:54;;;;;;;;;;;;;;;9.60;82.83;98233.16;5077107;28;19960;-73
2022/04/11 10:31:20;;;;;;;;;;;;;;;10.17;82.58;98232.75;5076549;28;20309;-73
2022/04/11 10:33:48;;;;;;;;;;;;;;;9.91;81.66;98223.66;5078492;28;19932;-74
2022/04/11 10:36:25;;;;;;;;;;;;;;;9.80;82.14;98219.28;5078612;28;19960;-74
2022/04/11 10:39:06;;;;;;;;;;;;;;;10.23;84.24;98213.88;5077166;28;19938;-75
2022/04/11 10:41:52;;;;;;;;;;;;;;;10.52;79.20;98213.59;5076427;28;19957;-73
2022/04/11 10:44:32;;;;;;;;;;;;;;;10.32;80.21;98210.72;5069249;28;19942;-73
2022/04/11 10:47:17;;;;;;;;;;;;;;;10.51;81.89;98203.97;5068351;28;19925;-74
2022/04/11 10:50:01;;;;;;;;;;;;;;;10.68;82.22;98199.25;5077805;28;19983;-74
2022/04/11 10:52:31;;;;;;;;;;;;;;;10.52;77.95;98201.00;5077956;28;19951;-74
2022/04/11 10:55:04;;;;;;;;;;;;;;;10.95;81.51;98193.84;5067166;28;19955;-73
2022/04/11 10:57:33;;;;;;;;;;;;;;;10.66;74.18;98202.22;5076825;28;19992;-73
2022/04/11 11:00:05;;;;;;;;;;;;;;;10.40;74.86;98197.72;5080610;28;19925;-72
2022/04/11 11:02:47;;;;;;;;;;;;;;;10.17;77.11;98182.84;5073295;28;19924;-73
2022/04/11 11:05:23;;;;;;;;;;;;;;;10.38;76.95;98177.69;5066103;28;19921;-73
2022/04/11 11:07:49;;;;;;;;;;;;;;;10.87;77.82;98186.31;5078156;28;19989;-74
2022/04/11 11:10:27;;;;;;;;;;;;;;;11.35;75.59;98168.16;5080366;28;20000;-74
2022/04/11 11:13:13;;;;;;;;;;;;;;;11.10;68.39;98185.91;5069565;28;19960;-74
2022/04/11 11:15:42;;;;;;;;;;;;;;;10.86;66.27;98174.03;5077230;28;19928;-74
2022/04/11 11:18:08;;;;;;;;;;;;;;;11.58;72.19;98161.53;5080363;28;19924;-74
2022/04/11 11:20:48;;;;;;;;;;;;;;;11.62;67.29;98148.44;5076691;28;19924;-74
2022/04/11 11:23:16;;;;;;;;;;;;;;;11.55;65.34;98156.69;5076280;28;19928;-74
2022/04/11 11:25:42;;;;;;;;;;;;;;;11.39;63.88;98152.34;5077148;28;19924;-75
2022/04/11 11:28:12;;;;;;;;;;;;;;;11.22;61.32;98141.06;5078491;28;20020;-74
2022/04/11 11:30:38;;;;;;;;;;;;;;;11.54;60.49;98152.44;5079553;28;20321;-75
2022/04/11 11:33:08;;;;;;;;;;;;;;;11.30;55.88;98144.03;5075121;28;19920;-74
2022/04/11 11:35:34;;;;;;;;;;;;;;;11.07;54.29;98144.50;5073976;28;19931;-74
2022/04/11 11:38:02;;;;;;;;;;;;;;;11.09;54.36;98145.03;5078472;28;19996;-74
2022/04/11 11:40:29;;;;;;;;;;;;;;;11.00;57.29;98141.25;5078769;28;19929;-73
2022/04/11 11:42:56;;;;;;;;;;;;;;;11.03;60.30;98142.56;5068887;28;19954;-74
2022/04/11 11:45:28;;;;;;;;;;;;;;;10.90;56.23;98141.19;5074301;28;20448;-74
2022/04/11 11:47:54;;;;;;;;;;;;;;;11.03;53.66;98142.56;5077823;28;19920;-74
2022/04/11 11:50:22;;;;;;;;;;;;;;;10.90;53.12;98137.69;5077346;28;19950;-73
2022/04/11 11:52:56;;;;;;;;;;;;;;;11.18;56.22;98131.97;5075938;28;19963;-75
2022/04/11 11:55:23;;;;;;;;;;;;;;;11.17;59.01;98139.16;5073212;28;19931;-72
2022/04/11 11:58:02;;;;;;;;;;;;;;;11.15;57.37;98133.28;5076698;28;20083;-72
2022/04/11 12:00:33;;;;;;;;;;;;;;;11.26;57.80;98136.81;5077982;28;19920;-74
2022/04/11 12:05:45;;;;;;;;;;;;;;;11.28;61.38;98132.81;5073826;28;19951;-74
2022/04/11 12:08:14;;;;;;;;;;;;;;;11.26;59.77;98120.78;5078204;28;19962;-76
2022/04/11 12:10:40;;;;;;;;;;;;;;;11.19;57.16;98121.03;5076299;28;19924;-76
2022/04/11 12:13:07;;;;;;;;;;;;;;;11.31;58.35;98124.28;5067664;28;19984;-73
2022/04/11 12:15:33;;;;;;;;;;;;;;;11.35;60.81;98124.56;5073825;28;20003;-74
2022/04/11 12:18:01;;;;;;;;;;;;;;;11.08;61.93;98122.03;5075901;28;19963;-73
2022/04/11 12:20:30;;;;;;;;;;;;;;;11.05;63.31;98113.75;5077327;28;19920;-73
2022/04/11 12:23:01;;;;;;;;;;;;;;;11.23;65.72;98106.03;5073834;28;19935;-73
2022/04/11 12:25:28;;;;;;;;;;;;;;;11.27;65.77;98092.97;5073871;28;19925;-72
2022/04/11 12:28:11;;;;;;;;;;;;;;;11.35;63.35;98097.81;5077260;28;19924;-72
2022/04/11 12:30:37;;;;;;;;;;;;;;;11.42;62.40;98086.88;5077189;28;19964;-73
2022/04/11 12:33:05;;;;;;;;;;;;;;;11.47;62.79;98084.19;5072453;28;19951;-74
2022/04/11 12:35:31;;;;;;;;;;;;;;;11.65;63.99;98083.69;5073807;28;20360;-72
2022/04/11 12:38:00;;;;;;;;;;;;;;;11.71;64.75;98080.78;5077184;28;19960;-74
2022/04/11 12:40:42;;;;;;;;;;;;;;;11.95;64.57;98081.06;5077022;28;19924;-74
2022/04/11 12:43:09;;;;;;;;;;;;;;;11.96;61.26;98071.19;5063405;28;19951;-73
2022/04/11 12:45:36;;;;;;;;;;;;;;;11.71;61.05;98086.16;5076153;28;19928;-73
2022/04/11 12:48:03;;;;;;;;;;;;;;;11.60;59.54;98079.16;5073233;28;20585;-75
2022/04/11 12:50:30;;;;;;;;;;;;;;;11.70;60.81;98067.66;5071837;28;19988;-73
2022/04/11 12:52:57;;;;;;;;;;;;;;;11.67;60.32;98066.31;5076196;28;19984;-75
2022/04/11 12:55:24;;;;;;;;;;;;;;;11.49;59.07;98071.34;5076501;28;19958;-75